sensor_id;sensor_type;location;lat;lon;timestamp;P1;durP1;ratioP1;P2;durP2;ratioP2
8017;SDS011;4054;52.666;4.770;2023-05-15T00:00:16;67.13;;;61.45;;
8017;SDS011;4054;52.666;4.770;2023-05-15T00:00:50;67.88;;;61.95;;
8017;SDS011;4054;52.666;4.770;2023-05-15T00:01:29;68.65;;;62.80;;
8017;SDS011;4054;52.666;4.770;2023-05-15T00:02:01;67.35;;;61.65;;
8017;SDS011;4054;52.666;4.770;2023-05-15T00:02:35;67.55;;;61.75;;
8017;SDS011;4054;52.666;4.770;2023-05-15T00:03:08;67.57;;;62.00;;
8017;SDS011;4054;52.666;4.770;2023-05-15T00:03:43;67.53;;;62.03;;
8017;SDS011;4054;52.666;4.770;2023-05-15T00:04:16;67.18;;;61.38;;
8017;SDS011;4054;52.666;4.770;2023-05-15T00:04:51;66.72;;;61.40;;
8017;SDS011;4054;52.666;4.770;2023-05-15T00:05:23;67.93;;;62.33;;
8017;SDS011;4054;52.666;4.770;2023-05-15T00:05:57;67.85;;;62.15;;
8017;SDS011;4054;52.666;4.770;2023-05-15T00:06:29;67.57;;;62.03;;
8017;SDS011;4054;52.666;4.770;2023-05-15T00:07:01;66.80;;;61.30;;
8017;SDS011;4054;52.666;4.770;2023-05-15T00:07:34;68.00;;;62.40;;
8017;SDS011;4054;52.666;4.770;2023-05-15T00:08:09;67.85;;;62.42;;
8017;SDS011;4054;52.666;4.770;2023-05-15T00:08:40;67.25;;;61.90;;
8017;SDS011;4054;52.666;4.770;2023-05-15T00:09:13;66.70;;;61.30;;
8017;SDS011;4054;52.666;4.770;2023-05-15T00:09:45;67.35;;;61.58;;
8017;SDS011;4054;52.666;4.770;2023-05-15T00:10:18;67.50;;;61.83;;
8017;SDS011;4054;52.666;4.770;2023-05-15T00:10:52;66.05;;;60.85;;
8017;SDS011;4054;52.666;4.770;2023-05-15T00:11:32;66.75;;;61.38;;
8017;SDS011;4054;52.666;4.770;2023-05-15T00:12:04;66.72;;;61.45;;
8017;SDS011;4054;52.666;4.770;2023-05-15T00:12:38;66.45;;;61.20;;
8017;SDS011;4054;52.666;4.770;2023-05-15T00:13:10;66.32;;;61.17;;
8017;SDS011;4054;52.666;4.770;2023-05-15T00:13:41;66.82;;;61.25;;
8017;SDS011;4054;52.666;4.770;2023-05-15T00:14:17;67.60;;;61.78;;
8017;SDS011;4054;52.666;4.770;2023-05-15T00:14:50;66.57;;;61.38;;
8017;SDS011;4054;52.666;4.770;2023-05-15T00:15:24;67.65;;;61.78;;
8017;SDS011;4054;52.666;4.770;2023-05-15T00:15:57;66.55;;;61.22;;
8017;SDS011;4054;52.666;4.770;2023-05-15T00:16:29;66.70;;;61.50;;
8017;SDS011;4054;52.666;4.770;2023-05-15T00:17:02;67.45;;;61.95;;
8017;SDS011;4054;52.666;4.770;2023-05-15T00:17:34;68.55;;;62.55;;
8017;SDS011;4054;52.666;4.770;2023-05-15T00:18:15;66.75;;;61.22;;
8017;SDS011;4054;52.666;4.770;2023-05-15T00:18:48;68.28;;;62.42;;
8017;SDS011;4054;52.666;4.770;2023-05-15T00:19:20;66.93;;;61.63;;
8017;SDS011;4054;52.666;4.770;2023-05-15T00:19:52;67.85;;;62.25;;
8017;SDS011;4054;52.666;4.770;2023-05-15T00:20:28;67.00;;;61.65;;
8017;SDS011;4054;52.666;4.770;2023-05-15T00:21:03;67.47;;;62.17;;
8017;SDS011;4054;52.666;4.770;2023-05-15T00:21:35;65.93;;;60.72;;
8017;SDS011;4054;52.666;4.770;2023-05-15T00:22:12;66.97;;;61.28;;
8017;SDS011;4054;52.666;4.770;2023-05-15T00:22:44;66.60;;;61.53;;
8017;SDS011;4054;52.666;4.770;2023-05-15T00:23:16;68.43;;;62.33;;
8017;SDS011;4054;52.666;4.770;2023-05-15T00:23:49;66.43;;;61.20;;
8017;SDS011;4054;52.666;4.770;2023-05-15T00:24:24;68.18;;;62.53;;
8017;SDS011;4054;52.666;4.770;2023-05-15T00:24:57;66.18;;;60.95;;
8017;SDS011;4054;52.666;4.770;2023-05-15T00:25:29;67.18;;;61.70;;
8017;SDS011;4054;52.666;4.770;2023-05-15T00:26:01;66.85;;;61.58;;
8017;SDS011;4054;52.666;4.770;2023-05-15T00:26:33;66.22;;;61.08;;
8017;SDS011;4054;52.666;4.770;2023-05-15T00:27:07;66.80;;;61.35;;
8017;SDS011;4054;52.666;4.770;2023-05-15T00:27:40;65.83;;;60.57;;
8017;SDS011;4054;52.666;4.770;2023-05-15T00:28:12;66.05;;;60.75;;
8017;SDS011;4054;52.666;4.770;2023-05-15T00:28:45;66.97;;;61.47;;
8017;SDS011;4054;52.666;4.770;2023-05-15T00:29:18;66.35;;;60.58;;
8017;SDS011;4054;52.666;4.770;2023-05-15T00:29:50;68.22;;;62.20;;
8017;SDS011;4054;52.666;4.770;2023-05-15T00:30:24;68.47;;;62.10;;
8017;SDS011;4054;52.666;4.770;2023-05-15T00:30:55;66.55;;;61.22;;
8017;SDS011;4054;52.666;4.770;2023-05-15T00:31:27;66.68;;;60.67;;
8017;SDS011;4054;52.666;4.770;2023-05-15T00:32:02;66.80;;;61.35;;
8017;SDS011;4054;52.666;4.770;2023-05-15T00:32:34;67.63;;;62.03;;
8017;SDS011;4054;52.666;4.770;2023-05-15T00:33:11;67.90;;;61.58;;
8017;SDS011;4054;52.666;4.770;2023-05-15T00:33:45;68.00;;;61.78;;
8017;SDS011;4054;52.666;4.770;2023-05-15T00:34:17;66.30;;;61.00;;
8017;SDS011;4054;52.666;4.770;2023-05-15T00:34:49;65.97;;;60.90;;
8017;SDS011;4054;52.666;4.770;2023-05-15T00:35:21;66.72;;;61.35;;
8017;SDS011;4054;52.666;4.770;2023-05-15T00:35:55;67.45;;;61.90;;
8017;SDS011;4054;52.666;4.770;2023-05-15T00:36:27;66.40;;;60.83;;
8017;SDS011;4054;52.666;4.770;2023-05-15T00:36:59;67.72;;;62.22;;
8017;SDS011;4054;52.666;4.770;2023-05-15T00:37:44;67.00;;;61.40;;
8017;SDS011;4054;52.666;4.770;2023-05-15T00:38:19;68.03;;;62.50;;
8017;SDS011;4054;52.666;4.770;2023-05-15T00:38:51;66.60;;;61.20;;
8017;SDS011;4054;52.666;4.770;2023-05-15T00:39:27;66.78;;;61.42;;
8017;SDS011;4054;52.666;4.770;2023-05-15T00:39:59;67.45;;;62.03;;
8017;SDS011;4054;52.666;4.770;2023-05-15T00:40:31;67.00;;;61.55;;
8017;SDS011;4054;52.666;4.770;2023-05-15T00:41:05;66.53;;;60.67;;
8017;SDS011;4054;52.666;4.770;2023-05-15T00:41:37;67.32;;;61.55;;
8017;SDS011;4054;52.666;4.770;2023-05-15T00:42:15;66.47;;;61.25;;
8017;SDS011;4054;52.666;4.770;2023-05-15T00:42:49;67.43;;;61.80;;
8017;SDS011;4054;52.666;4.770;2023-05-15T00:43:22;66.85;;;61.28;;
8017;SDS011;4054;52.666;4.770;2023-05-15T00:43:56;66.10;;;60.88;;
8017;SDS011;4054;52.666;4.770;2023-05-15T00:44:33;67.25;;;61.78;;
8017;SDS011;4054;52.666;4.770;2023-05-15T00:45:07;65.53;;;60.42;;
8017;SDS011;4054;52.666;4.770;2023-05-15T00:45:40;66.25;;;60.95;;
8017;SDS011;4054;52.666;4.770;2023-05-15T00:46:14;66.13;;;61.03;;
8017;SDS011;4054;52.666;4.770;2023-05-15T00:46:47;67.38;;;62.13;;
8017;SDS011;4054;52.666;4.770;2023-05-15T00:47:20;66.45;;;60.58;;
8017;SDS011;4054;52.666;4.770;2023-05-15T00:47:55;65.70;;;60.42;;
8017;SDS011;4054;52.666;4.770;2023-05-15T00:48:28;67.97;;;62.28;;
8017;SDS011;4054;52.666;4.770;2023-05-15T00:49:02;66.07;;;60.55;;
8017;SDS011;4054;52.666;4.770;2023-05-15T00:49:35;66.00;;;60.72;;
8017;SDS011;4054;52.666;4.770;2023-05-15T00:50:08;69.30;;;63.30;;
8017;SDS011;4054;52.666;4.770;2023-05-15T00:50:41;65.72;;;60.38;;
8017;SDS011;4054;52.666;4.770;2023-05-15T00:51:15;66.05;;;60.83;;
8017;SDS011;4054;52.666;4.770;2023-05-15T00:51:47;65.70;;;60.50;;
8017;SDS011;4054;52.666;4.770;2023-05-15T00:52:21;66.25;;;61.08;;
8017;SDS011;4054;52.666;4.770;2023-05-15T00:52:54;66.07;;;61.00;;
8017;SDS011;4054;52.666;4.770;2023-05-15T00:53:28;65.82;;;60.67;;
8017;SDS011;4054;52.666;4.770;2023-05-15T00:54:00;67.47;;;61.63;;
8017;SDS011;4054;52.666;4.770;2023-05-15T00:54:34;66.00;;;60.30;;
8017;SDS011;4054;52.666;4.770;2023-05-15T00:55:07;66.55;;;61.15;;
8017;SDS011;4054;52.666;4.770;2023-05-15T00:55:39;65.95;;;60.63;;
8017;SDS011;4054;52.666;4.770;2023-05-15T00:56:16;66.35;;;61.00;;
8017;SDS011;4054;52.666;4.770;2023-05-15T00:56:48;66.60;;;61.30;;
8017;SDS011;4054;52.666;4.770;2023-05-15T00:57:22;67.05;;;61.45;;
8017;SDS011;4054;52.666;4.770;2023-05-15T00:57:55;65.90;;;60.80;;
8017;SDS011;4054;52.666;4.770;2023-05-15T00:58:31;67.68;;;61.70;;
8017;SDS011;4054;52.666;4.770;2023-05-15T00:59:04;67.70;;;61.95;;
8017;SDS011;4054;52.666;4.770;2023-05-15T00:59:43;67.30;;;61.58;;
8017;SDS011;4054;52.666;4.770;2023-05-15T01:00:17;66.95;;;61.50;;
8017;SDS011;4054;52.666;4.770;2023-05-15T01:00:51;66.57;;;61.35;;
8017;SDS011;4054;52.666;4.770;2023-05-15T01:01:24;67.13;;;61.53;;
8017;SDS011;4054;52.666;4.770;2023-05-15T01:01:56;67.93;;;61.97;;
8017;SDS011;4054;52.666;4.770;2023-05-15T01:02:28;67.00;;;61.60;;
8017;SDS011;4054;52.666;4.770;2023-05-15T01:03:01;66.18;;;60.78;;
8017;SDS011;4054;52.666;4.770;2023-05-15T01:03:37;66.35;;;61.03;;
8017;SDS011;4054;52.666;4.770;2023-05-15T01:04:08;66.85;;;61.45;;
8017;SDS011;4054;52.666;4.770;2023-05-15T01:04:42;66.32;;;61.03;;
8017;SDS011;4054;52.666;4.770;2023-05-15T01:05:14;66.93;;;61.30;;
8017;SDS011;4054;52.666;4.770;2023-05-15T01:05:46;68.40;;;62.70;;
8017;SDS011;4054;52.666;4.770;2023-05-15T01:06:19;67.97;;;62.30;;
8017;SDS011;4054;52.666;4.770;2023-05-15T01:06:50;67.07;;;61.78;;
8017;SDS011;4054;52.666;4.770;2023-05-15T01:07:24;67.25;;;61.45;;
8017;SDS011;4054;52.666;4.770;2023-05-15T01:08:00;67.05;;;61.67;;
8017;SDS011;4054;52.666;4.770;2023-05-15T01:08:39;67.35;;;61.58;;
8017;SDS011;4054;52.666;4.770;2023-05-15T01:09:14;66.35;;;61.20;;
8017;SDS011;4054;52.666;4.770;2023-05-15T01:09:47;67.15;;;61.58;;
8017;SDS011;4054;52.666;4.770;2023-05-15T01:10:20;66.88;;;61.28;;
8017;SDS011;4054;52.666;4.770;2023-05-15T01:10:55;66.65;;;61.35;;
8017;SDS011;4054;52.666;4.770;2023-05-15T01:11:28;67.47;;;62.03;;
8017;SDS011;4054;52.666;4.770;2023-05-15T01:12:07;67.90;;;62.30;;
8017;SDS011;4054;52.666;4.770;2023-05-15T01:12:41;66.20;;;61.00;;
8017;SDS011;4054;52.666;4.770;2023-05-15T01:13:14;67.32;;;61.83;;
8017;SDS011;4054;52.666;4.770;2023-05-15T01:13:47;67.10;;;61.20;;
8017;SDS011;4054;52.666;4.770;2023-05-15T01:14:19;66.47;;;60.85;;
8017;SDS011;4054;52.666;4.770;2023-05-15T01:14:53;67.68;;;61.72;;
8017;SDS011;4054;52.666;4.770;2023-05-15T01:15:25;67.68;;;62.08;;
8017;SDS011;4054;52.666;4.770;2023-05-15T01:15:57;66.63;;;61.42;;
8017;SDS011;4054;52.666;4.770;2023-05-15T01:16:30;66.30;;;61.05;;
8017;SDS011;4054;52.666;4.770;2023-05-15T01:17:02;65.88;;;60.65;;
8017;SDS011;4054;52.666;4.770;2023-05-15T01:17:37;66.78;;;61.00;;
8017;SDS011;4054;52.666;4.770;2023-05-15T01:18:09;67.05;;;61.55;;
8017;SDS011;4054;52.666;4.770;2023-05-15T01:18:42;66.38;;;61.08;;
8017;SDS011;4054;52.666;4.770;2023-05-15T01:19:15;67.55;;;62.03;;
8017;SDS011;4054;52.666;4.770;2023-05-15T01:19:47;66.75;;;61.40;;
8017;SDS011;4054;52.666;4.770;2023-05-15T01:20:23;66.15;;;60.95;;
8017;SDS011;4054;52.666;4.770;2023-05-15T01:21:09;67.38;;;61.70;;
8017;SDS011;4054;52.666;4.770;2023-05-15T01:21:56;67.47;;;61.92;;
8017;SDS011;4054;52.666;4.770;2023-05-15T01:23:08;66.50;;;61.20;;
8017;SDS011;4054;52.666;4.770;2023-05-15T01:23:51;66.55;;;61.20;;
8017;SDS011;4054;52.666;4.770;2023-05-15T01:27:48;67.43;;;61.85;;
8017;SDS011;4054;52.666;4.770;2023-05-15T01:28:24;66.35;;;60.90;;
8017;SDS011;4054;52.666;4.770;2023-05-15T01:29:03;66.57;;;61.38;;
8017;SDS011;4054;52.666;4.770;2023-05-15T01:29:40;65.63;;;60.40;;
8017;SDS011;4054;52.666;4.770;2023-05-15T01:30:22;66.30;;;60.88;;
8017;SDS011;4054;52.666;4.770;2023-05-15T01:30:58;66.28;;;61.20;;
8017;SDS011;4054;52.666;4.770;2023-05-15T01:31:36;68.07;;;61.83;;
8017;SDS011;4054;52.666;4.770;2023-05-15T01:32:14;65.43;;;60.42;;
8017;SDS011;4054;52.666;4.770;2023-05-15T01:32:51;65.50;;;60.38;;
8017;SDS011;4054;52.666;4.770;2023-05-15T01:33:28;65.13;;;60.10;;
8017;SDS011;4054;52.666;4.770;2023-05-15T01:34:05;67.50;;;62.05;;
8017;SDS011;4054;52.666;4.770;2023-05-15T01:34:42;66.28;;;60.78;;
8017;SDS011;4054;52.666;4.770;2023-05-15T01:35:17;65.75;;;60.45;;
8017;SDS011;4054;52.666;4.770;2023-05-15T01:35:57;66.10;;;60.80;;
8017;SDS011;4054;52.666;4.770;2023-05-15T01:36:32;65.75;;;60.65;;
8017;SDS011;4054;52.666;4.770;2023-05-15T01:37:08;66.82;;;60.88;;
8017;SDS011;4054;52.666;4.770;2023-05-15T01:37:45;66.32;;;61.08;;
8017;SDS011;4054;52.666;4.770;2023-05-15T01:38:22;66.28;;;60.95;;
8017;SDS011;4054;52.666;4.770;2023-05-15T01:38:59;66.53;;;60.95;;
8017;SDS011;4054;52.666;4.770;2023-05-15T01:39:33;66.20;;;60.88;;
8017;SDS011;4054;52.666;4.770;2023-05-15T01:40:06;65.97;;;60.80;;
8017;SDS011;4054;52.666;4.770;2023-05-15T01:40:42;66.93;;;61.40;;
8017;SDS011;4054;52.666;4.770;2023-05-15T01:41:19;66.60;;;61.28;;
8017;SDS011;4054;52.666;4.770;2023-05-15T01:41:56;67.20;;;61.70;;
8017;SDS011;4054;52.666;4.770;2023-05-15T01:42:37;67.50;;;62.10;;
8017;SDS011;4054;52.666;4.770;2023-05-15T01:43:14;67.05;;;61.55;;
8017;SDS011;4054;52.666;4.770;2023-05-15T01:43:51;67.40;;;61.70;;
8017;SDS011;4054;52.666;4.770;2023-05-15T01:44:29;66.53;;;61.25;;
8017;SDS011;4054;52.666;4.770;2023-05-15T01:45:05;67.07;;;61.45;;
8017;SDS011;4054;52.666;4.770;2023-05-15T01:45:41;66.43;;;61.22;;
8017;SDS011;4054;52.666;4.770;2023-05-15T01:46:16;65.85;;;60.80;;
8017;SDS011;4054;52.666;4.770;2023-05-15T01:46:54;68.10;;;62.28;;
8017;SDS011;4054;52.666;4.770;2023-05-15T01:47:32;66.68;;;61.28;;
8017;SDS011;4054;52.666;4.770;2023-05-15T01:48:11;67.05;;;61.35;;
8017;SDS011;4054;52.666;4.770;2023-05-15T01:48:45;65.97;;;60.65;;
8017;SDS011;4054;52.666;4.770;2023-05-15T01:49:22;67.25;;;62.00;;
8017;SDS011;4054;52.666;4.770;2023-05-15T01:49:56;66.70;;;61.33;;
8017;SDS011;4054;52.666;4.770;2023-05-15T01:50:33;66.40;;;61.10;;
8017;SDS011;4054;52.666;4.770;2023-05-15T01:51:07;67.15;;;61.63;;
8017;SDS011;4054;52.666;4.770;2023-05-15T01:51:42;66.68;;;61.17;;
8017;SDS011;4054;52.666;4.770;2023-05-15T01:52:16;66.57;;;61.22;;
8017;SDS011;4054;52.666;4.770;2023-05-15T01:52:53;67.10;;;61.40;;
8017;SDS011;4054;52.666;4.770;2023-05-15T01:53:29;67.03;;;61.30;;
8017;SDS011;4054;52.666;4.770;2023-05-15T01:54:03;66.25;;;60.83;;
8017;SDS011;4054;52.666;4.770;2023-05-15T01:54:38;66.65;;;61.08;;
8017;SDS011;4054;52.666;4.770;2023-05-15T01:55:10;65.75;;;60.63;;
8017;SDS011;4054;52.666;4.770;2023-05-15T01:55:44;66.88;;;61.35;;
8017;SDS011;4054;52.666;4.770;2023-05-15T01:56:18;68.80;;;63.15;;
8017;SDS011;4054;52.666;4.770;2023-05-15T01:56:52;66.93;;;61.22;;
8017;SDS011;4054;52.666;4.770;2023-05-15T01:57:26;66.00;;;60.78;;
8017;SDS011;4054;52.666;4.770;2023-05-15T01:58:02;66.85;;;61.28;;
8017;SDS011;4054;52.666;4.770;2023-05-15T01:58:35;67.00;;;61.40;;
8017;SDS011;4054;52.666;4.770;2023-05-15T01:59:10;68.15;;;62.40;;
8017;SDS011;4054;52.666;4.770;2023-05-15T01:59:45;67.57;;;61.88;;
8017;SDS011;4054;52.666;4.770;2023-05-15T02:02:11;67.03;;;61.17;;
8017;SDS011;4054;52.666;4.770;2023-05-15T02:02:45;67.38;;;62.03;;
8017;SDS011;4054;52.666;4.770;2023-05-15T02:03:18;68.47;;;62.58;;
8017;SDS011;4054;52.666;4.770;2023-05-15T02:03:50;67.90;;;62.15;;
8017;SDS011;4054;52.666;4.770;2023-05-15T02:04:25;67.53;;;61.92;;
8017;SDS011;4054;52.666;4.770;2023-05-15T02:04:58;67.60;;;62.00;;
8017;SDS011;4054;52.666;4.770;2023-05-15T02:05:30;66.93;;;61.53;;
8017;SDS011;4054;52.666;4.770;2023-05-15T02:06:04;66.93;;;61.63;;
8017;SDS011;4054;52.666;4.770;2023-05-15T02:06:37;67.15;;;61.75;;
8017;SDS011;4054;52.666;4.770;2023-05-15T02:07:12;66.88;;;61.42;;
8017;SDS011;4054;52.666;4.770;2023-05-15T02:07:46;68.45;;;62.80;;
8017;SDS011;4054;52.666;4.770;2023-05-15T02:08:19;67.53;;;61.83;;
8017;SDS011;4054;52.666;4.770;2023-05-15T02:08:52;66.43;;;61.13;;
8017;SDS011;4054;52.666;4.770;2023-05-15T02:09:28;69.15;;;63.08;;
8017;SDS011;4054;52.666;4.770;2023-05-15T02:10:01;66.78;;;61.15;;
8017;SDS011;4054;52.666;4.770;2023-05-15T02:10:33;67.32;;;60.97;;
8017;SDS011;4054;52.666;4.770;2023-05-15T02:11:07;66.25;;;60.92;;
8017;SDS011;4054;52.666;4.770;2023-05-15T02:11:39;67.18;;;61.60;;
8017;SDS011;4054;52.666;4.770;2023-05-15T02:12:12;66.72;;;61.15;;
8017;SDS011;4054;52.666;4.770;2023-05-15T02:12:46;67.47;;;61.88;;
8017;SDS011;4054;52.666;4.770;2023-05-15T02:13:22;66.88;;;61.58;;
8017;SDS011;4054;52.666;4.770;2023-05-15T02:13:56;67.10;;;61.60;;
8017;SDS011;4054;52.666;4.770;2023-05-15T02:14:29;65.55;;;60.50;;
8017;SDS011;4054;52.666;4.770;2023-05-15T02:15:01;67.22;;;61.53;;
8017;SDS011;4054;52.666;4.770;2023-05-15T02:15:34;67.03;;;61.67;;
8017;SDS011;4054;52.666;4.770;2023-05-15T02:16:08;66.07;;;60.90;;
8017;SDS011;4054;52.666;4.770;2023-05-15T02:16:40;65.95;;;60.63;;
8017;SDS011;4054;52.666;4.770;2023-05-15T02:17:12;66.43;;;61.15;;
8017;SDS011;4054;52.666;4.770;2023-05-15T02:17:45;65.63;;;60.28;;
8017;SDS011;4054;52.666;4.770;2023-05-15T02:18:17;66.63;;;61.13;;
8017;SDS011;4054;52.666;4.770;2023-05-15T02:18:49;64.82;;;59.80;;
8017;SDS011;4054;52.666;4.770;2023-05-15T02:19:23;66.25;;;61.03;;
8017;SDS011;4054;52.666;4.770;2023-05-15T02:19:56;66.97;;;61.15;;
8017;SDS011;4054;52.666;4.770;2023-05-15T02:20:28;65.50;;;60.50;;
8017;SDS011;4054;52.666;4.770;2023-05-15T02:21:00;66.20;;;60.67;;
8017;SDS011;4054;52.666;4.770;2023-05-15T02:21:33;65.85;;;60.78;;
8017;SDS011;4054;52.666;4.770;2023-05-15T02:22:05;65.88;;;60.67;;
8017;SDS011;4054;52.666;4.770;2023-05-15T02:22:37;64.88;;;60.08;;
8017;SDS011;4054;52.666;4.770;2023-05-15T02:23:10;65.00;;;59.70;;
8017;SDS011;4054;52.666;4.770;2023-05-15T02:23:42;65.40;;;60.42;;
8017;SDS011;4054;52.666;4.770;2023-05-15T02:24:13;65.32;;;60.22;;
8017;SDS011;4054;52.666;4.770;2023-05-15T02:24:46;64.95;;;60.03;;
8017;SDS011;4054;52.666;4.770;2023-05-15T02:25:19;64.53;;;59.72;;
8017;SDS011;4054;52.666;4.770;2023-05-15T02:26:07;64.35;;;59.55;;
8017;SDS011;4054;52.666;4.770;2023-05-15T02:26:53;64.32;;;59.50;;
8017;SDS011;4054;52.666;4.770;2023-05-15T02:27:32;64.28;;;59.38;;
8017;SDS011;4054;52.666;4.770;2023-05-15T02:28:11;64.53;;;59.70;;
8017;SDS011;4054;52.666;4.770;2023-05-15T02:28:53;64.90;;;60.00;;
8017;SDS011;4054;52.666;4.770;2023-05-15T02:29:33;64.82;;;60.03;;
8017;SDS011;4054;52.666;4.770;2023-05-15T02:30:18;64.75;;;59.75;;
8017;SDS011;4054;52.666;4.770;2023-05-15T02:30:59;65.13;;;60.05;;
8017;SDS011;4054;52.666;4.770;2023-05-15T02:31:37;64.72;;;59.78;;
8017;SDS011;4054;52.666;4.770;2023-05-15T02:32:13;64.97;;;59.85;;
8017;SDS011;4054;52.666;4.770;2023-05-15T02:32:54;65.75;;;60.60;;
8017;SDS011;4054;52.666;4.770;2023-05-15T02:33:34;65.25;;;60.28;;
8017;SDS011;4054;52.666;4.770;2023-05-15T02:34:11;64.95;;;60.13;;
8017;SDS011;4054;52.666;4.770;2023-05-15T02:34:50;64.80;;;59.88;;
8017;SDS011;4054;52.666;4.770;2023-05-15T02:35:31;63.95;;;59.22;;
8017;SDS011;4054;52.666;4.770;2023-05-15T02:36:05;65.18;;;60.10;;
8017;SDS011;4054;52.666;4.770;2023-05-15T02:36:40;65.35;;;60.35;;
8017;SDS011;4054;52.666;4.770;2023-05-15T02:37:15;64.32;;;59.45;;
8017;SDS011;4054;52.666;4.770;2023-05-15T02:37:54;64.65;;;59.80;;
8017;SDS011;4054;52.666;4.770;2023-05-15T02:38:33;64.07;;;59.20;;
8017;SDS011;4054;52.666;4.770;2023-05-15T02:39:08;66.28;;;60.53;;
8017;SDS011;4054;52.666;4.770;2023-05-15T02:39:44;64.50;;;59.50;;
8017;SDS011;4054;52.666;4.770;2023-05-15T02:40:20;64.90;;;59.95;;
8017;SDS011;4054;52.666;4.770;2023-05-15T02:40:54;64.88;;;59.92;;
8017;SDS011;4054;52.666;4.770;2023-05-15T02:41:28;64.10;;;59.10;;
8017;SDS011;4054;52.666;4.770;2023-05-15T02:42:02;63.67;;;58.92;;
8017;SDS011;4054;52.666;4.770;2023-05-15T02:42:36;65.00;;;59.75;;
8017;SDS011;4054;52.666;4.770;2023-05-15T02:43:10;64.63;;;59.63;;
8017;SDS011;4054;52.666;4.770;2023-05-15T02:43:45;64.65;;;59.78;;
8017;SDS011;4054;52.666;4.770;2023-05-15T02:44:20;65.07;;;60.17;;
8017;SDS011;4054;52.666;4.770;2023-05-15T02:44:55;63.90;;;59.30;;
8017;SDS011;4054;52.666;4.770;2023-05-15T02:45:29;64.22;;;59.50;;
8017;SDS011;4054;52.666;4.770;2023-05-15T02:46:01;64.63;;;59.63;;
8017;SDS011;4054;52.666;4.770;2023-05-15T02:46:34;64.32;;;59.38;;
8017;SDS011;4054;52.666;4.770;2023-05-15T02:47:09;64.15;;;59.03;;
8017;SDS011;4054;52.666;4.770;2023-05-15T02:47:42;63.08;;;58.38;;
8017;SDS011;4054;52.666;4.770;2023-05-15T02:48:14;64.70;;;59.67;;
8017;SDS011;4054;52.666;4.770;2023-05-15T02:48:49;64.70;;;59.67;;
8017;SDS011;4054;52.666;4.770;2023-05-15T02:49:23;64.45;;;59.40;;
8017;SDS011;4054;52.666;4.770;2023-05-15T02:49:55;65.00;;;60.00;;
8017;SDS011;4054;52.666;4.770;2023-05-15T02:50:28;64.43;;;59.65;;
8017;SDS011;4054;52.666;4.770;2023-05-15T02:51:01;65.10;;;59.97;;
8017;SDS011;4054;52.666;4.770;2023-05-15T02:51:33;63.75;;;58.80;;
8017;SDS011;4054;52.666;4.770;2023-05-15T02:52:06;64.68;;;59.83;;
8017;SDS011;4054;52.666;4.770;2023-05-15T02:52:38;64.43;;;59.72;;
8017;SDS011;4054;52.666;4.770;2023-05-15T02:53:10;63.92;;;59.30;;
8017;SDS011;4054;52.666;4.770;2023-05-15T02:53:44;65.20;;;60.22;;
8017;SDS011;4054;52.666;4.770;2023-05-15T02:54:16;64.05;;;59.45;;
8017;SDS011;4054;52.666;4.770;2023-05-15T02:54:49;64.65;;;59.55;;
8017;SDS011;4054;52.666;4.770;2023-05-15T02:55:21;64.00;;;59.20;;
8017;SDS011;4054;52.666;4.770;2023-05-15T02:55:54;63.03;;;58.42;;
8017;SDS011;4054;52.666;4.770;2023-05-15T02:56:27;64.18;;;59.38;;
8017;SDS011;4054;52.666;4.770;2023-05-15T02:56:59;64.32;;;59.33;;
8017;SDS011;4054;52.666;4.770;2023-05-15T02:57:31;63.88;;;59.15;;
8017;SDS011;4054;52.666;4.770;2023-05-15T02:58:05;64.60;;;59.65;;
8017;SDS011;4054;52.666;4.770;2023-05-15T02:58:37;63.88;;;59.08;;
8017;SDS011;4054;52.666;4.770;2023-05-15T02:59:09;64.75;;;59.50;;
8017;SDS011;4054;52.666;4.770;2023-05-15T02:59:45;64.68;;;59.65;;
8017;SDS011;4054;52.666;4.770;2023-05-15T03:00:17;64.18;;;59.33;;
8017;SDS011;4054;52.666;4.770;2023-05-15T03:00:49;64.05;;;59.15;;
8017;SDS011;4054;52.666;4.770;2023-05-15T03:01:23;63.50;;;58.90;;
8017;SDS011;4054;52.666;4.770;2023-05-15T03:01:55;64.05;;;59.35;;
8017;SDS011;4054;52.666;4.770;2023-05-15T03:02:27;63.63;;;59.00;;
8017;SDS011;4054;52.666;4.770;2023-05-15T03:03:00;63.70;;;59.03;;
8017;SDS011;4054;52.666;4.770;2023-05-15T03:03:33;64.18;;;59.45;;
8017;SDS011;4054;52.666;4.770;2023-05-15T03:04:05;64.13;;;59.15;;
8017;SDS011;4054;52.666;4.770;2023-05-15T03:04:38;63.85;;;59.00;;
8017;SDS011;4054;52.666;4.770;2023-05-15T03:05:10;63.25;;;58.55;;
8017;SDS011;4054;52.666;4.770;2023-05-15T03:05:42;64.05;;;59.05;;
8017;SDS011;4054;52.666;4.770;2023-05-15T03:06:14;64.13;;;59.13;;
8017;SDS011;4054;52.666;4.770;2023-05-15T03:06:49;64.40;;;59.60;;
8017;SDS011;4054;52.666;4.770;2023-05-15T03:07:21;63.22;;;58.70;;
8017;SDS011;4054;52.666;4.770;2023-05-15T03:07:53;65.10;;;60.10;;
8017;SDS011;4054;52.666;4.770;2023-05-15T03:08:25;64.10;;;59.38;;
8017;SDS011;4054;52.666;4.770;2023-05-15T03:08:58;63.35;;;58.65;;
8017;SDS011;4054;52.666;4.770;2023-05-15T03:09:29;64.28;;;59.40;;
8017;SDS011;4054;52.666;4.770;2023-05-15T03:10:01;65.07;;;60.20;;
8017;SDS011;4054;52.666;4.770;2023-05-15T03:10:35;65.85;;;60.05;;
8017;SDS011;4054;52.666;4.770;2023-05-15T03:11:06;63.88;;;59.20;;
8017;SDS011;4054;52.666;4.770;2023-05-15T03:11:38;63.83;;;59.13;;
8017;SDS011;4054;52.666;4.770;2023-05-15T03:12:11;65.00;;;59.55;;
8017;SDS011;4054;52.666;4.770;2023-05-15T03:12:43;64.55;;;59.65;;
8017;SDS011;4054;52.666;4.770;2023-05-15T03:13:15;64.10;;;59.37;;
8017;SDS011;4054;52.666;4.770;2023-05-15T03:13:47;64.22;;;59.33;;
8017;SDS011;4054;52.666;4.770;2023-05-15T03:14:20;64.30;;;59.65;;
8017;SDS011;4054;52.666;4.770;2023-05-15T03:14:53;64.20;;;59.47;;
8017;SDS011;4054;52.666;4.770;2023-05-15T03:15:25;64.97;;;59.85;;
8017;SDS011;4054;52.666;4.770;2023-05-15T03:15:58;64.70;;;59.90;;
8017;SDS011;4054;52.666;4.770;2023-05-15T03:16:31;65.43;;;60.40;;
8017;SDS011;4054;52.666;4.770;2023-05-15T03:17:03;65.95;;;60.75;;
8017;SDS011;4054;52.666;4.770;2023-05-15T03:17:35;66.10;;;60.80;;
8017;SDS011;4054;52.666;4.770;2023-05-15T03:18:08;66.50;;;61.25;;
8017;SDS011;4054;52.666;4.770;2023-05-15T03:18:41;66.50;;;61.17;;
8017;SDS011;4054;52.666;4.770;2023-05-15T03:19:13;68.15;;;62.55;;
8017;SDS011;4054;52.666;4.770;2023-05-15T03:19:46;66.15;;;61.15;;
8017;SDS011;4054;52.666;4.770;2023-05-15T03:20:18;65.65;;;60.38;;
8017;SDS011;4054;52.666;4.770;2023-05-15T03:20:51;66.35;;;61.00;;
8017;SDS011;4054;52.666;4.770;2023-05-15T03:21:23;66.90;;;61.53;;
8017;SDS011;4054;52.666;4.770;2023-05-15T03:21:56;67.15;;;61.65;;
8017;SDS011;4054;52.666;4.770;2023-05-15T03:22:28;67.68;;;61.88;;
8017;SDS011;4054;52.666;4.770;2023-05-15T03:23:00;67.22;;;61.75;;
8017;SDS011;4054;52.666;4.770;2023-05-15T03:23:33;68.43;;;62.75;;
8017;SDS011;4054;52.666;4.770;2023-05-15T03:24:08;68.47;;;62.88;;
8017;SDS011;4054;52.666;4.770;2023-05-15T03:24:40;68.28;;;62.83;;
8017;SDS011;4054;52.666;4.770;2023-05-15T03:25:13;67.88;;;62.35;;
8017;SDS011;4054;52.666;4.770;2023-05-15T03:25:45;68.35;;;62.78;;
8017;SDS011;4054;52.666;4.770;2023-05-15T03:26:17;68.13;;;62.50;;
8017;SDS011;4054;52.666;4.770;2023-05-15T03:26:50;67.78;;;62.20;;
8017;SDS011;4054;52.666;4.770;2023-05-15T03:27:22;67.93;;;62.42;;
8017;SDS011;4054;52.666;4.770;2023-05-15T03:27:54;68.82;;;63.08;;
8017;SDS011;4054;52.666;4.770;2023-05-15T03:28:27;68.35;;;62.70;;
8017;SDS011;4054;52.666;4.770;2023-05-15T03:28:59;69.45;;;63.35;;
8017;SDS011;4054;52.666;4.770;2023-05-15T03:29:33;68.15;;;62.38;;
8017;SDS011;4054;52.666;4.770;2023-05-15T03:30:08;68.25;;;62.80;;
8017;SDS011;4054;52.666;4.770;2023-05-15T03:30:42;68.72;;;63.03;;
8017;SDS011;4054;52.666;4.770;2023-05-15T03:31:15;68.80;;;63.08;;
8017;SDS011;4054;52.666;4.770;2023-05-15T03:31:55;68.32;;;62.65;;